x

La Have Bank (44150) Wave Buoy

7:00am - Sun 1st Feb 2015 All times are AST. -4 hours from GMT.

  • Sig Wave height 17.1ft
  • Peak Period 11s
  • Wind
    40mph
  • Sea Temp 47°f
  • Air Temp 29°f
  • Sea Pressure 1003.3mb
  • La Have Bank
  • La Have Bank

More Historic Weather Station data

Upgrade to MSW Pro to gain access to the past 30 days of data for over 8000 Wavebouys and Weather Stations around the globe.

Join Pro

Comparision Forecast

View Surf forecast
   
Sun 02/01 7:00am 17ft 11s 40
mph
1003.3mb 47f 29f
6:00am 17.5ft 10s 36 45 mph 1002mb 46f 30f
5:00am 17ft 10s 36 45 mph 1000.9mb 46f 30f
4:00am 17ft 11s 38 47 mph 999.8mb 47f 30f
3:00am 15.5ft 10s 36 47 mph 999mb 48f 30f
1:00am 18ft 11s 36 45 mph 996.6mb 49f 32f
12:00am 17.5ft 10s 38 45 mph 995.3mb 50f 33f
Sat 01/31 11:00pm  -   -  38
mph
- - -
10:00pm 14ft 10s 36 43 mph 992.5mb 51f 35f
9:00pm 15ft 9s 31 40 mph 991.5mb 50f 35f
8:00pm 14.5ft 10s 29 36 mph 990.7mb 49f 36f
7:00pm 14ft 10s 27 36 mph 990.3mb 47f 37f
6:00pm 15.5ft 10s 31 38 mph 989.5mb 45f 38f
5:00pm 15ft 10s 31 38 mph 988.9mb 45f 39f
4:00pm 14.5ft 10s 29 38 mph 988.7mb 46f 41f
3:00pm 15ft 10s 27 36 mph 988.5mb 47f 42f
2:00pm 15ft 10s 20 25 mph 988.5mb 48f 42f
1:00pm 15ft 10s 27 34 mph 988.1mb 49f 45f
12:00pm 14ft 10s 29 38 mph 989.4mb 48f 45f
11:00am 13ft 10s 31 40 mph 990.4mb 48f 44f
10:00am 11.5ft 11s 29 34 mph 990.1mb 48f 45f
9:00am 12.5ft 10s 13 18 mph 989.8mb 49f 48f
8:00am 11ft 8s 25 31 mph 990.7mb 49f 48f
7:00am 10ft 8s 20 27 mph 989.9mb 48f 49f
6:00am 10ft 8s 7 9 mph 989.9mb 50f 49f
5:00am 10ft 7s 13 18 mph 990mb 50f 51f
4:00am 11ft 7s 18 22 mph 989.8mb 50f 52f
3:00am 11ft 8s 22 29 mph 990.8mb 50f 52f
2:00am 11ft 8s 22 31 mph 992.7mb 51f 53f
12:00am 9.5ft 7s 34 40 mph 997mb 51f 51f
Fri 01/30 11:00pm  -   -  34
mph
999.6mb - 47f
10:00pm 7.5ft 10s 31 40 mph 1002.1mb 49f 48f
8:00pm 6ft 10s 25 29 mph 1005.7mb 49f 46f
7:00pm 5ft 10s 22 29 mph 1007.5mb 50f 44f
6:00pm 5.5ft 9s 20 25 mph 1008.4mb 49f 43f
5:00pm 5.5ft 10s 16 18 mph 1009.6mb 50f 42f
4:00pm 5ft 9s 13 18 mph 1010mb 50f 42f
3:00pm 5ft 11s 11 16 mph 1010.6mb 50f 41f
2:00pm 4.5ft 10s 11 16 mph 1011.6mb 52f 41f
1:00pm 4.5ft 10s 9 13 mph 1012.8mb 53f 40f
12:00pm 4.5ft 10s 7 11 mph 1013.1mb 53f 39f
11:00am 4.5ft 8s 9 13 mph 1014.3mb 53f 38f
10:00am 4.5ft 9s 9 13 mph 1014.8mb 52f 37f
9:00am 4.5ft 10s 4 9 mph 1015.2mb 52f 37f
8:00am 4.5ft 6s 7 9 mph 1015.5mb 52f 37f
7:00am 4.5ft 9s 11 16 mph 1015.8mb 52f 36f
6:00am 4.5ft 10s 11 13 mph 1016mb 49f 36f
5:00am 5ft 9s 13 16 mph 1016.3mb 49f 36f
4:00am 5ft 10s 13 16 mph 1016.6mb 50f 36f
3:00am 4.5ft 10s 11 16 mph 1016.9mb 50f 37f
2:00am 5ft 10s 13 18 mph 1017.2mb 51f 36f
1:00am 5ft 9s 18 22 mph 1017.8mb 52f 36f
12:00am 5.5ft 11s 16 20 mph 1018.5mb 53f 36f
Thu 01/29 11:00pm 5ft 11s 18 22 mph 1019mb 53f 36f
10:00pm 6ft 10s 16 22 mph 1019.3mb 53f 35f
9:00pm 5.5ft 9s 18 25 mph 1019.2mb 53f 35f
8:00pm 5.5ft 10s 18 25 mph 1019.2mb 53f 34f
7:00pm 5ft 11s 20 27 mph 1019.4mb 52f 33f
6:00pm  -   -  18
mph
1020mb - 33f
5:00pm 6ft 11s 20 25 mph 1020.1mb 50f 32f
4:00pm  -   -  20
mph
- - -
3:00pm 7ft 11s 20 27 mph 1020mb 51f 31f
2:00pm 6.5ft 9s 18 22 mph 1020.4mb 51f 31f
1:00pm 6ft 10s 18 27 mph 1020.8mb 51f 31f
12:00pm  -   -  18
mph
- - -
11:00am 7ft 10s 18 22 mph 1021.9mb 53f 30f
10:00am 7ft 10s 20 27 mph 1021.9mb 53f 29f
9:00am 7.5ft 10s 18 25 mph 1021.6mb 53f 29f
8:00am 8ft 10s 18 27 mph 1021.4mb 52f 30f
7:00am 8ft 11s 13 20 mph 1021.2mb 52f 29f
6:00am 8ft 10s 16 22 mph 1019.8mb 51f 29f
5:00am 7.5ft 11s 22 27 mph 1018.3mb 52f 30f
4:00am  -   -  20
mph
- - -
3:00am 8ft 10s 16 22 mph 1017.7mb 52f 29f
2:00am 8ft 11s 18 22 mph 1017.7mb 51f 29f
1:00am 9ft 10s 18 27 mph 1016.8mb 51f 29f
12:00am 10ft 11s 18 22 mph 1016.2mb 52f 30f
Wed 01/28 11:00pm 10ft 11s 18 25 mph 1015.2mb 52f 31f
10:00pm 11ft 10s 22 29 mph 1013.9mb 52f 32f
9:00pm 13ft 9s 20 27 mph 1012.9mb 53f 33f
8:00pm 13.5ft 10s 25 31 mph 1011.5mb 53f 35f
7:00pm 13ft 10s 27 34 mph 1010.2mb 53f 35f
6:00pm 14ft 10s 27 34 mph 1009mb 53f 36f
5:00pm 15ft 10s 27 36 mph 1007.8mb 53f 38f
4:00pm 14.5ft 10s 29 36 mph 1005.7mb 52f 39f
3:00pm 15.5ft 10s 27 36 mph 1004.5mb 51f 39f
2:00pm 15.5ft 11s 29 36 mph 1003.5mb 50f 39f
1:00pm 17.5ft 11s 29 36 mph 1002.7mb 49f 41f